Time;durP1;ratioP1;P1;durP2;ratioP2;P2;SDS_P1;SDS_P2;PMS_P1;PMS_P2;Temp;Humidity;BMP_temperature;BMP_pressure;BME280_temperature;BME280_humidity;BME280_pressure;Samples;Min_cycle;Max_cycle;Signal;HPM_P1;HPM_P2
2022/04/29 00:00:55;;;;;;;5.77;5.17;;;;;;;5.14;100.00;97339.16;5050352;27;105525;-71
2022/04/29 00:03:24;;;;;;;6.13;5.33;;;;;;;5.00;100.00;97334.78;5049537;27;105626;-71
2022/04/29 00:05:55;;;;;;;5.70;5.20;;;;;;;5.06;100.00;97334.00;5050283;27;101772;-71
2022/04/29 00:08:23;;;;;;;5.47;4.97;;;;;;;5.00;100.00;97340.06;5050405;27;105255;-71
2022/04/29 00:10:51;;;;;;;5.57;5.07;;;;;;;4.93;100.00;97339.19;5049620;27;105458;-71
2022/04/29 00:13:19;;;;;;;5.70;5.20;;;;;;;5.03;100.00;97337.06;5053552;27;101940;-71
2022/04/29 00:15:47;;;;;;;5.97;5.47;;;;;;;4.90;100.00;97331.66;5049344;27;105647;-71
2022/04/29 00:18:15;;;;;;;5.87;5.07;;;;;;;5.06;100.00;97328.75;5050174;27;101943;-71
2022/04/29 00:20:43;;;;;;;5.27;4.87;;;;;;;4.94;100.00;97319.75;5049412;27;105373;-71
2022/04/29 00:23:12;;;;;;;6.20;5.10;;;;;;;4.83;100.00;97330.81;5049196;27;105419;-71
2022/04/29 00:25:40;;;;;;;6.13;5.50;;;;;;;5.00;100.00;97325.06;5049948;27;101983;-71
2022/04/29 00:28:08;;;;;;;6.30;5.80;;;;;;;5.13;100.00;97327.78;5049918;27;105079;-71
2022/04/29 00:30:36;;;;;;;5.90;5.30;;;;;;;5.05;100.00;97324.47;5066236;27;105837;-71
2022/04/29 00:33:04;;;;;;;5.80;5.30;;;;;;;5.11;100.00;97326.34;5049746;27;101964;-71
2022/04/29 00:35:31;;;;;;;5.80;5.30;;;;;;;4.98;100.00;97323.63;5052547;27;105323;-71
2022/04/29 00:38:00;;;;;;;5.70;5.20;;;;;;;5.09;100.00;97320.47;5049248;27;101744;-71
2022/04/29 00:40:33;;;;;;;6.03;5.43;;;;;;;5.06;100.00;97316.38;5049824;27;105357;-71
2022/04/29 00:43:00;;;;;;;5.83;5.33;;;;;;;5.14;100.00;97316.22;5048887;27;105661;-71
2022/04/29 00:45:28;;;;;;;6.33;5.67;;;;;;;4.73;100.00;97322.41;5049680;27;102195;-71
2022/04/29 00:47:56;;;;;;;7.83;5.20;;;;;;;4.81;100.00;97314.38;5049596;27;105619;-70
2022/04/29 00:50:29;;;;;;;6.00;5.40;;;;;;;4.49;100.00;97318.41;5048925;27;105690;-70
2022/04/29 00:52:59;;;;;;;5.90;5.00;;;;;;;4.44;100.00;97310.25;5051257;27;101717;-70
2022/04/29 00:55:31;;;;;;;5.20;4.73;;;;;;;4.28;100.00;97307.88;5049228;27;105357;-71
2022/04/29 00:58:04;;;;;;;5.37;4.80;;;;;;;4.27;100.00;97305.44;5052116;27;105430;-71
2022/04/29 01:00:32;;;;;;;5.87;4.87;;;;;;;4.34;100.00;97301.84;5049491;27;105293;-71
2022/04/29 01:03:02;;;;;;;5.40;4.90;;;;;;;4.39;100.00;97303.91;5048971;27;105349;-71
2022/04/29 01:05:31;;;;;;;6.57;5.97;;;;;;;4.20;100.00;97312.47;5049160;27;101874;-71
2022/04/29 01:07:59;;;;;;;7.37;4.80;;;;;;;4.44;100.00;97297.09;5049475;27;105398;-71
2022/04/29 01:10:29;;;;;;;7.03;5.87;;;;;;;4.57;100.00;97302.44;5048582;27;103910;-71
2022/04/29 01:12:58;;;;;;;8.63;5.90;;;;;;;4.63;100.00;97301.69;5049342;27;101833;-71
2022/04/29 01:15:26;;;;;;;6.77;6.07;;;;;;;4.67;100.00;97292.41;5049356;27;105458;-71
2022/04/29 01:17:56;;;;;;;6.57;5.80;;;;;;;4.66;100.00;97297.84;5051921;27;105538;-71
2022/04/29 01:20:27;;;;;;;6.60;5.90;;;;;;;4.69;100.00;97295.66;5060348;27;102876;-71
2022/04/29 01:22:56;;;;;;;6.40;5.77;;;;;;;4.63;100.00;97291.16;5051992;27;106117;-71
2022/04/29 01:25:24;;;;;;;8.37;6.07;;;;;;;4.73;100.00;97285.53;5052305;27;101909;-71
2022/04/29 01:27:54;;;;;;;6.57;5.80;;;;;;;4.73;100.00;97288.16;5052362;27;105291;-71
2022/04/29 01:30:25;;;;;;;6.00;5.40;;;;;;;4.56;100.00;97292.94;5051755;27;105303;-71
2022/04/29 01:32:54;;;;;;;6.23;5.53;;;;;;;4.43;100.00;97284.09;5052082;27;101884;-71
2022/04/29 01:35:21;;;;;;;5.50;5.00;;;;;;;4.31;100.00;97286.44;5052197;27;105247;-71
2022/04/29 01:37:50;;;;;;;5.67;5.17;;;;;;;4.41;100.00;97281.66;5051490;27;105685;-71
2022/04/29 01:40:22;;;;;;;7.03;5.03;;;;;;;4.07;100.00;97276.28;5055844;27;101957;-71
2022/04/29 01:42:49;;;;;;;5.50;4.97;;;;;;;4.03;100.00;97274.22;5051419;27;105743;-71
2022/04/29 01:45:17;;;;;;;6.17;5.57;;;;;;;4.03;100.00;97276.84;5052065;27;101986;-71
2022/04/29 01:48:10;;;;;;;6.37;5.57;;;;;;;4.14;100.00;97281.63;5052463;27;104858;-71
2022/04/29 01:50:52;;;;;;;6.87;5.80;;;;;;;4.04;100.00;97278.50;5055029;27;105949;-71
2022/04/29 01:53:19;;;;;;;6.17;5.57;;;;;;;4.05;100.00;97280.91;5055603;27;101822;-71
2022/04/29 01:55:49;;;;;;;7.03;5.87;;;;;;;3.99;100.00;97278.25;5055720;27;105218;-71
2022/04/29 01:58:18;;;;;;;6.63;5.83;;;;;;;4.08;100.00;97275.28;5054507;27;105441;-71
2022/04/29 02:00:46;;;;;;;6.20;5.40;;;;;;;4.13;100.00;97270.28;5055696;27;101916;-71
2022/04/29 02:03:13;;;;;;;6.40;5.83;;;;;;;4.10;100.00;97275.09;5058665;27;105320;-71
2022/04/29 02:05:42;;;;;;;5.77;5.27;;;;;;;3.97;100.00;97274.97;5055584;27;101891;-71
2022/04/29 02:08:09;;;;;;;7.00;4.90;;;;;;;3.73;100.00;97270.06;5055622;27;105177;-71
2022/04/29 02:10:37;;;;;;;5.57;4.83;;;;;;;3.59;100.00;97268.28;5054685;27;105730;-71
2022/04/29 02:13:07;;;;;;;5.07;4.67;;;;;;;3.55;100.00;97267.03;5055336;27;101807;-71
2022/04/29 02:15:46;;;;;;;6.03;4.90;;;;;;;3.54;100.00;97266.22;5055420;27;104805;-71
2022/04/29 02:18:16;;;;;;;6.17;5.03;;;;;;;3.57;100.00;97267.66;5071995;27;105233;-71
2022/04/29 02:20:43;;;;;;;6.20;4.90;;;;;;;3.44;100.00;97265.69;5054713;27;101859;-71
2022/04/29 02:23:11;;;;;;;5.53;5.00;;;;;;;3.50;100.00;97264.94;5055210;27;105276;-71
2022/04/29 02:25:39;;;;;;;5.93;5.33;;;;;;;3.66;100.00;97254.22;5057974;27;105531;-71
2022/04/29 02:28:09;;;;;;;5.67;5.17;;;;;;;3.62;100.00;97262.66;5055093;27;105338;-71
2022/04/29 02:30:37;;;;;;;6.27;5.67;;;;;;;3.43;100.00;97266.69;5054473;27;105185;-71
2022/04/29 02:33:04;;;;;;;5.70;5.20;;;;;;;3.35;100.00;97260.72;5055236;27;101852;-71
2022/04/29 02:35:32;;;;;;;5.33;4.83;;;;;;;3.38;100.00;97263.00;5055060;27;105329;-71
2022/04/29 02:37:59;;;;;;;6.67;5.10;;;;;;;3.22;100.00;97258.75;5054318;27;105799;-71
2022/04/29 02:40:27;;;;;;;6.53;5.00;;;;;;;3.22;100.00;97265.84;5055156;27;102118;-71
2022/04/29 02:42:55;;;;;;;5.33;4.83;;;;;;;3.33;100.00;97260.91;5073107;27;102485;-71
2022/04/29 02:45:24;;;;;;;5.97;5.13;;;;;;;3.21;100.00;97254.50;5054396;27;105370;-71
2022/04/29 02:47:54;;;;;;;6.03;5.43;;;;;;;3.35;100.00;97250.22;5058368;27;101787;-71
2022/04/29 02:50:22;;;;;;;5.70;5.20;;;;;;;3.40;100.00;97253.94;5054238;27;105595;-71
2022/04/29 02:52:54;;;;;;;6.33;5.63;;;;;;;3.32;100.00;97255.81;5054654;27;102322;-71
2022/04/29 02:55:21;;;;;;;5.70;5.20;;;;;;;3.37;100.00;97253.47;5054741;27;105190;-71
2022/04/29 02:58:09;;;;;;;6.33;5.67;;;;;;;3.37;100.00;97253.47;5071422;27;104074;-71
2022/04/29 03:00:39;;;;;;;6.43;5.83;;;;;;;3.38;100.00;97255.91;5053976;27;101752;-71
2022/04/29 03:03:08;;;;;;;6.20;5.70;;;;;;;3.42;100.00;97256.34;5054784;27;105580;-71
2022/04/29 03:05:35;;;;;;;6.27;5.67;;;;;;;3.52;100.00;97254.25;5053691;27;105355;-71
2022/04/29 03:08:02;;;;;;;6.60;6.00;;;;;;;3.33;100.00;97252.22;5054446;27;101918;-71
2022/04/29 03:10:30;;;;;;;6.47;5.83;;;;;;;3.08;100.00;97253.53;5057435;27;105158;-71
2022/04/29 03:12:58;;;;;;;5.93;5.43;;;;;;;3.06;100.00;97247.66;5071354;27;101855;-71
2022/04/29 03:15:34;;;;;;;6.00;5.50;;;;;;;2.86;100.00;97244.75;5054649;27;105333;-71
2022/04/29 03:18:20;;;;;;;6.00;5.50;;;;;;;2.80;100.00;97242.81;5052671;27;105555;-71
2022/04/29 03:20:49;;;;;;;5.77;5.27;;;;;;;2.76;100.00;97243.38;5053692;27;101852;-71
2022/04/29 03:23:19;;;;;;;9.47;5.90;;;;;;;2.64;100.00;97245.66;5054447;27;105270;-71
2022/04/29 03:25:56;;;;;;;6.30;5.70;;;;;;;2.61;100.00;97242.56;5053530;27;105448;-71
2022/04/29 03:28:26;;;;;;;7.90;6.17;;;;;;;2.66;100.00;97240.22;5054423;27;101999;-71
2022/04/29 03:30:54;;;;;;;6.43;5.87;;;;;;;2.55;100.00;97236.22;5056997;27;105191;-71
2022/04/29 03:33:27;;;;;;;6.07;5.47;;;;;;;2.68;100.00;97235.59;5054169;27;101876;-71
2022/04/29 03:35:55;;;;;;;6.50;5.70;;;;;;;2.52;100.00;97238.41;5054057;27;105571;-71
2022/04/29 03:38:23;;;;;;;7.03;5.97;;;;;;;2.47;100.00;97238.13;5053200;27;105407;-71
2022/04/29 03:40:51;;;;;;;6.93;6.23;;;;;;;2.55;100.00;97233.59;5053991;27;101874;-71
2022/04/29 03:43:20;;;;;;;8.10;6.23;;;;;;;2.63;100.00;97232.69;5053966;27;105203;-71
2022/04/29 03:45:48;;;;;;;7.10;6.20;;;;;;;2.64;100.00;97235.16;5071912;27;102848;-71
2022/04/29 03:48:23;;;;;;;7.57;6.60;;;;;;;2.74;100.00;97234.88;5053724;27;102242;-71
2022/04/29 03:51:11;;;;;;;7.27;6.33;;;;;;;2.64;100.00;97232.53;5053962;27;105307;-71
2022/04/29 03:53:39;;;;;;;7.43;6.73;;;;;;;2.75;100.00;97241.75;5056675;27;105508;-71
2022/04/29 03:56:08;;;;;;;6.70;6.00;;;;;;;2.57;100.00;97233.44;5070935;27;105172;-71
2022/04/29 03:58:35;;;;;;;7.03;6.43;;;;;;;2.65;100.00;97244.66;5053008;27;105383;-71
2022/04/29 04:01:03;;;;;;;7.00;6.40;;;;;;;2.71;100.00;97246.56;5053552;27;101874;-71
2022/04/29 04:04:03;;;;;;;7.13;6.53;;;;;;;2.62;100.00;97247.63;5066126;27;103430;-71
2022/04/29 04:06:51;;;;;;;7.53;6.83;;;;;;;2.44;100.00;97248.97;5052908;27;105539;-71
2022/04/29 04:09:36;;;;;;;8.90;8.00;;;;;;;2.64;100.00;97250.09;5053690;27;101941;-71
2022/04/29 04:12:07;;;;;;;13.73;9.37;;;;;;;2.77;100.00;97250.25;5052519;27;105183;-71
2022/04/29 04:14:53;;;;;;;8.60;7.80;;;;;;;2.76;100.00;97254.72;5071271;27;102197;-71
2022/04/29 04:17:21;;;;;;;8.73;7.80;;;;;;;2.91;100.00;97250.28;5057003;27;102094;-71
2022/04/29 04:19:49;;;;;;;9.33;8.30;;;;;;;2.81;100.00;97238.41;5052273;27;105464;-71
2022/04/29 04:22:20;;;;;;;8.33;7.43;;;;;;;2.76;100.00;97238.13;5053235;27;101891;-71
2022/04/29 04:24:48;;;;;;;8.90;7.20;;;;;;;2.60;100.00;97240.94;5053518;27;104890;-72
2022/04/29 04:27:17;;;;;;;8.40;7.53;;;;;;;2.77;100.00;97245.00;5052614;27;105781;-72
2022/04/29 04:29:44;;;;;;;8.10;7.03;;;;;;;2.85;100.00;97243.09;5053074;27;101884;-72
2022/04/29 04:32:13;;;;;;;9.80;7.53;;;;;;;2.84;100.00;97249.34;5053097;27;105305;-72
2022/04/29 04:34:52;;;;;;;7.67;6.97;;;;;;;2.94;100.00;97246.44;5052556;27;105687;-71
2022/04/29 04:37:23;;;;;;;8.10;7.30;;;;;;;3.01;100.00;97257.88;5053025;27;102097;-71
2022/04/29 04:39:58;;;;;;;8.60;7.60;;;;;;;3.07;100.00;97252.69;5055979;27;105013;-71
2022/04/29 04:42:28;;;;;;;8.50;7.57;;;;;;;3.15;100.00;97254.41;5053107;27;102439;-71
2022/04/29 04:45:00;;;;;;;9.43;8.00;;;;;;;3.21;100.00;97254.50;5052997;27;105102;-71
2022/04/29 04:47:30;;;;;;;10.10;8.20;;;;;;;3.45;100.00;97261.25;5052009;27;105495;-71
2022/04/29 04:50:01;;;;;;;9.53;8.63;;;;;;;3.61;100.00;97255.78;5067922;27;101924;-71
2022/04/29 04:52:33;;;;;;;9.73;8.73;;;;;;;3.87;100.00;97266.59;5052913;27;105130;-71
2022/04/29 04:55:05;;;;;;;9.93;9.03;;;;;;;4.10;100.00;97272.47;5051983;27;105441;-71
2022/04/29 04:57:33;;;;;;;10.57;9.47;;;;;;;4.20;100.00;97263.25;5052691;27;101750;-71
2022/04/29 05:00:00;;;;;;;11.40;9.33;;;;;;;4.28;100.00;97264.94;5052742;27;105207;-71
2022/04/29 05:02:41;;;;;;;12.40;9.60;;;;;;;4.42;100.00;97264.84;5055616;27;104027;-71
2022/04/29 05:05:47;;;;;;;10.20;9.00;;;;;;;4.61;100.00;97266.00;5007341;28;102777;-71
2022/04/29 05:08:16;;;;;;;14.90;11.20;;;;;;;4.87;100.00;97279.38;4990607;28;105810;-71
2022/04/29 05:10:44;;;;;;;11.77;10.53;;;;;;;5.01;100.00;97278.41;5030195;27;101925;-71
2022/04/29 05:13:12;;;;;;;11.50;10.40;;;;;;;5.17;100.00;97275.47;5051553;27;105344;-71
2022/04/29 05:15:42;;;;;;;12.60;10.60;;;;;;;5.28;100.00;97280.19;5034369;27;105720;-71
2022/04/29 05:18:19;;;;;;;11.57;10.43;;;;;;;5.47;100.00;97274.22;5051515;27;101985;-71
2022/04/29 05:21:01;;;;;;;11.87;10.67;;;;;;;5.57;100.00;97275.44;5050923;27;104168;-72
2022/04/29 05:23:30;;;;;;;10.87;9.83;;;;;;;5.64;100.00;97270.22;5050560;27;104342;-72
2022/04/29 05:26:18;;;;;;;12.07;9.60;;;;;;;5.76;100.00;97279.16;5041532;27;101883;-72
2022/04/29 05:29:08;;;;;;;10.80;9.80;;;;;;;5.89;100.00;97285.34;5030545;27;102606;-72
2022/04/29 05:31:58;;;;;;;10.97;9.93;;;;;;;6.14;100.00;97282.94;5030980;27;102574;-72
2022/04/29 05:34:49;;;;;;;13.10;11.07;;;;;;;6.27;100.00;97277.69;5070121;27;103587;-72
2022/04/29 05:37:35;;;;;;;11.60;10.40;;;;;;;6.47;100.00;97270.59;5069487;27;102221;-72
2022/04/29 05:42:55;;;;;;;11.37;10.27;;;;;;;6.71;100.00;97276.06;5051291;27;105425;-79
2022/04/29 05:45:23;;;;;;;12.17;10.53;;;;;;;6.89;100.00;97273.63;5050479;27;105111;-79
2022/04/29 05:47:50;;;;;;;11.63;10.50;;;;;;;7.08;100.00;97275.41;5054769;27;101843;-79
2022/04/29 05:50:18;;;;;;;10.90;9.80;;;;;;;7.28;100.00;97272.72;5033908;27;105155;-73
2022/04/29 05:52:45;;;;;;;10.83;9.73;;;;;;;7.36;100.00;97270.66;5052231;27;101886;-73
2022/04/29 05:55:15;;;;;;;11.17;10.13;;;;;;;7.43;100.00;97263.53;5052287;27;104766;-73
2022/04/29 05:57:43;;;;;;;11.27;10.03;;;;;;;7.50;100.00;97266.13;5067502;27;104423;-73
2022/04/29 06:00:11;;;;;;;12.57;10.50;;;;;;;7.62;100.00;97267.91;5051199;27;101837;-73
2022/04/29 06:02:54;;;;;;;11.57;10.13;;;;;;;7.68;100.00;97274.22;5051082;27;105145;-73
2022/04/29 06:05:22;;;;;;;10.33;9.33;;;;;;;7.74;100.00;97268.06;5050411;27;105895;-73
2022/04/29 06:07:51;;;;;;;10.47;9.40;;;;;;;7.80;100.00;97275.16;5070360;27;101871;-73
2022/04/29 06:10:47;;;;;;;12.17;9.33;;;;;;;8.16;100.00;97259.44;5069928;27;103390;-73
2022/04/29 06:13:13;;;;;;;10.00;9.00;;;;;;;8.28;100.00;97261.25;5051908;27;102069;-73
2022/04/29 06:16:00;;;;;;;11.03;9.40;;;;;;;8.22;100.00;97269.22;5069382;27;103995;-74
2022/04/29 06:18:46;;;;;;;10.77;9.67;;;;;;;8.53;100.00;97271.84;5069851;27;102251;-74
2022/04/29 06:21:48;;;;;;;13.30;10.30;;;;;;;8.69;100.00;97271.31;5069759;27;101873;-74
2022/04/29 06:24:22;;;;;;;12.50;10.80;;;;;;;8.82;100.00;97272.03;5050718;27;105183;-74
2022/04/29 06:26:51;;;;;;;11.40;10.07;;;;;;;8.97;100.00;97269.84;5050407;27;105052;-74
2022/04/29 06:29:19;;;;;;;11.20;9.47;;;;;;;9.16;100.00;97268.81;5050942;27;101942;-74
2022/04/29 06:31:46;;;;;;;13.17;10.20;;;;;;;9.20;100.00;97261.22;5051594;27;104093;-74
2022/04/29 06:34:52;;;;;;;11.07;9.63;;;;;;;9.21;100.00;97266.31;5008806;28;103001;-74
2022/04/29 06:37:21;;;;;;;10.40;8.83;;;;;;;9.50;100.00;97262.13;4994161;28;104097;-74
2022/04/29 06:39:52;;;;;;;10.10;9.10;;;;;;;9.68;100.00;97259.44;5024148;27;103772;-74
2022/04/29 06:42:45;;;;;;;9.10;8.17;;;;;;;9.63;100.00;97257.47;5055125;27;101986;-74
2022/04/29 06:45:31;;;;;;;8.83;7.97;;;;;;;9.83;100.00;97262.53;5073841;27;101762;-74
2022/04/29 06:48:34;;;;;;;11.53;8.60;;;;;;;9.58;100.00;97261.81;5072235;27;103852;-74
2022/04/29 06:51:20;;;;;;;8.70;7.90;;;;;;;9.82;100.00;97266.22;5070358;27;102042;-74
2022/04/29 06:53:50;;;;;;;7.90;7.10;;;;;;;9.92;100.00;97263.84;5054987;27;104825;-74
2022/04/29 06:56:23;;;;;;;8.77;7.97;;;;;;;10.24;100.00;97270.59;5053984;27;104205;-74
2022/04/29 06:58:53;;;;;;;8.60;7.47;;;;;;;10.48;100.00;97259.78;5058346;27;102044;-74
2022/04/29 07:01:22;;;;;;;8.73;6.90;;;;;;;10.83;100.00;97263.31;5071115;27;105425;-74
2022/04/29 07:03:49;;;;;;;8.47;7.67;;;;;;;10.77;100.00;97255.41;5054871;27;101899;-74
2022/04/29 07:06:17;;;;;;;6.83;6.23;;;;;;;11.03;100.00;97255.78;5054725;27;104790;-74
2022/04/29 07:08:44;;;;;;;6.77;6.07;;;;;;;11.35;100.00;97256.22;5053783;27;105501;-72
2022/04/29 07:11:31;;;;;;;6.50;5.90;;;;;;;11.58;100.00;97253.50;5070461;27;101838;-72
2022/04/29 07:14:16;;;;;;;6.90;6.20;;;;;;;11.66;100.00;97253.97;5054559;27;105277;-72
2022/04/29 07:16:57;;;;;;;6.33;5.83;;;;;;;11.65;100.00;97249.72;5053939;27;105880;-72
2022/04/29 07:19:38;;;;;;;7.77;6.97;;;;;;;11.38;100.00;97245.09;5053299;27;101891;-72
2022/04/29 07:22:07;;;;;;;7.83;7.03;;;;;;;11.69;100.00;97239.38;5054361;27;105263;-68
2022/04/29 07:24:40;;;;;;;6.90;6.20;;;;;;;11.73;100.00;97241.31;5053867;27;102254;-68
2022/04/29 07:27:08;;;;;;;7.10;5.80;;;;;;;12.11;100.00;97227.41;5054148;27;105189;-79
2022/04/29 07:29:36;;;;;;;6.13;5.63;;;;;;;12.32;100.00;97234.72;5053516;27;105758;-68
2022/04/29 07:32:13;;;;;;;6.20;5.70;;;;;;;12.34;100.00;97237.94;5053869;27;102182;-67
2022/04/29 07:43:31;;;;;;;5.40;4.90;;;;;;;12.91;100.00;97229.53;5053392;27;104886;-66
2022/04/29 07:46:01;;;;;;;4.97;4.57;;;;;;;13.00;100.00;97229.97;5056255;27;102169;-66
2022/04/29 07:48:28;;;;;;;5.30;4.80;;;;;;;12.89;100.00;97230.84;5069375;27;102260;-67
2022/04/29 07:50:56;;;;;;;4.90;4.50;;;;;;;13.28;100.00;97225.31;5053020;27;105746;-67
2022/04/29 07:53:24;;;;;;;5.73;4.20;;;;;;;13.42;100.00;97225.75;5053550;27;101724;-67
2022/04/29 07:55:52;;;;;;;5.10;4.60;;;;;;;13.64;100.00;97218.56;5053783;27;105059;-66
2022/04/29 07:58:19;;;;;;;7.30;5.10;;;;;;;13.49;100.00;97216.50;5071517;27;102665;-67
2022/04/29 08:00:46;;;;;;;4.80;4.40;;;;;;;14.08;100.00;97214.78;5053810;27;101912;-66
2022/04/29 08:03:15;;;;;;;9.97;6.27;;;;;;;13.98;100.00;97218.16;5050575;27;105006;-67
2022/04/29 08:06:02;;;;;;;5.60;5.17;;;;;;;14.35;100.00;97216.44;5054453;27;105643;-67
2022/04/29 08:08:29;;;;;;;5.57;5.07;;;;;;;14.62;100.00;97221.72;5051559;27;105171;-67
2022/04/29 08:10:57;;;;;;;4.90;4.50;;;;;;;14.57;100.00;97213.66;5051108;27;105681;-67
2022/04/29 08:13:25;;;;;;;5.13;4.60;;;;;;;13.70;100.00;97212.22;5051537;27;102234;-67
2022/04/29 08:16:10;;;;;;;5.57;4.20;;;;;;;13.75;100.00;97214.94;5067008;27;102070;-67
2022/04/29 08:18:59;;;;;;;5.33;4.77;;;;;;;13.92;100.00;97204.97;5068645;27;103433;-67
2022/04/29 08:21:52;;;;;;;4.57;4.13;;;;;;;14.74;100.00;97209.78;5066151;27;101890;-67
2022/04/29 08:24:19;;;;;;;5.97;4.00;;;;;;;14.80;100.00;97202.59;5051581;27;104851;-67
2022/04/29 08:26:46;;;;;;;5.03;4.17;;;;;;;15.23;100.00;97200.47;5050622;27;105914;-67
2022/04/29 08:29:14;;;;;;;4.23;3.70;;;;;;;15.58;100.00;97192.63;5054721;27;101924;-67
2022/04/29 08:31:41;;;;;;;3.80;3.50;;;;;;;15.90;92.99;97187.09;5067886;27;105458;-67
2022/04/29 08:34:10;;;;;;;3.00;2.80;;;;;;;15.84;77.88;97190.84;5053131;27;102230;-66
2022/04/29 08:36:37;;;;;;;3.70;3.10;;;;;;;16.13;74.65;97178.59;5053287;27;105023;-66
2022/04/29 08:39:04;;;;;;;3.13;2.83;;;;;;;16.64;79.87;97182.94;5069829;27;105316;-67
2022/04/29 08:41:34;;;;;;;4.10;3.00;;;;;;;16.35;55.22;97176.47;5053060;27;101843;-67
2022/04/29 08:44:02;;;;;;;3.00;2.80;;;;;;;16.75;65.38;97174.63;5053394;27;105000;-67
2022/04/29 08:46:41;;;;;;;4.37;2.90;;;;;;;17.42;59.43;97175.03;5052427;27;105047;-67
2022/04/29 08:49:41;;;;;;;3.73;3.03;;;;;;;17.51;49.96;97168.03;5052637;27;102039;-66
2022/04/29 08:52:09;;;;;;;2.50;2.30;;;;;;;17.74;54.24;97158.50;5056179;27;104087;-67
2022/04/29 09:00:07;;;;;;;5.30;2.33;;;;;;;18.24;47.26;97158.19;5052034;27;105212;-66
2022/04/29 09:02:40;;;;;;;2.67;2.47;;;;;;;18.34;48.12;97160.84;5053055;27;102197;-67
2022/04/29 09:05:11;;;;;;;3.13;2.47;;;;;;;18.19;42.86;97158.22;5071764;27;102473;-66
2022/04/29 09:07:55;;;;;;;2.13;1.93;;;;;;;18.34;43.55;97145.50;5052435;27;105032;-67
2022/04/29 09:10:23;;;;;;;3.77;2.47;;;;;;;18.17;46.48;97145.06;5070968;27;101821;-67
2022/04/29 09:12:51;;;;;;;3.67;2.67;;;;;;;18.02;43.04;97133.56;5052639;27;104988;-67
2022/04/29 09:15:18;;;;;;;4.13;2.43;;;;;;;18.26;42.02;97137.19;5055741;27;105458;-66
2022/04/29 09:17:46;;;;;;;2.53;2.40;;;;;;;18.53;42.05;97134.84;5052904;27;105863;-66
2022/04/29 09:20:18;;;;;;;2.33;2.13;;;;;;;18.79;41.00;97136.22;5069481;27;102790;-66
2022/04/29 09:22:48;;;;;;;2.27;2.07;;;;;;;19.04;40.71;97131.41;5052692;27;101849;-67
2022/04/29 09:25:41;;;;;;;2.13;2.00;;;;;;;18.82;41.36;97130.25;5038288;27;102762;-67
2022/04/29 09:28:29;;;;;;;3.97;2.23;;;;;;;19.04;40.84;97117.09;5054646;27;102579;-67
2022/04/29 09:31:17;;;;;;;2.77;2.57;;;;;;;18.75;40.84;97116.31;5069586;27;102110;-67
2022/04/29 09:33:55;;;;;;;2.47;2.27;;;;;;;18.85;41.68;97118.94;5067630;27;102263;-67
2022/04/29 09:36:42;;;;;;;2.67;2.47;;;;;;;19.27;42.73;97113.63;5051837;27;104759;-66
2022/04/29 09:41:57;;;;;;;2.00;1.90;;;;;;;19.52;42.02;97107.94;5070434;27;101747;-66
2022/04/29 09:44:29;;;;;;;2.30;2.17;;;;;;;19.64;40.60;97111.84;5070831;27;101844;-66
2022/04/29 09:46:56;;;;;;;2.30;2.10;;;;;;;19.54;39.80;97108.44;5071028;27;102439;-66
2022/04/29 09:49:27;;;;;;;2.40;2.20;;;;;;;19.60;39.42;97100.00;5070045;27;102768;-66
2022/04/29 09:51:56;;;;;;;2.10;1.80;;;;;;;19.56;39.80;97106.28;5070862;27;101844;-66
2022/04/29 09:54:26;;;;;;;2.10;1.90;;;;;;;19.69;40.74;97100.16;5052343;27;105603;-66
2022/04/29 09:57:10;;;;;;;3.43;2.00;;;;;;;20.06;39.31;97105.56;5069746;27;103109;-66
2022/04/29 09:59:40;;;;;;;1.73;1.63;;;;;;;20.56;37.86;97094.78;5055471;27;101983;-66
2022/04/29 10:02:08;;;;;;;2.77;2.00;;;;;;;20.81;36.75;97098.97;5069900;27;102847;-66
2022/04/29 10:04:38;;;;;;;2.37;2.00;;;;;;;20.84;37.18;97093.75;5070702;27;101691;-66
2022/04/29 10:07:08;;;;;;;1.90;1.80;;;;;;;21.01;37.07;97090.47;5070410;27;102391;-66
2022/04/29 10:09:36;;;;;;;3.77;2.00;;;;;;;21.26;38.59;97084.59;5069328;27;104446;-66
2022/04/29 10:12:04;;;;;;;4.20;2.00;;;;;;;21.39;36.77;97083.78;5073969;27;101828;-66
2022/04/29 10:14:38;;;;;;;1.73;1.63;;;;;;;21.22;38.67;97073.56;5055680;27;103804;-66
2022/04/29 10:23:07;;;;;;;1.97;1.87;;;;;;;21.58;36.66;97076.34;5058270;27;105736;-66
2022/04/29 10:25:36;;;;;;;2.50;1.70;;;;;;;21.44;36.80;97076.38;5055502;27;102212;-66
2022/04/29 10:28:04;;;;;;;2.00;1.80;;;;;;;21.54;36.33;97081.56;5055048;27;104096;-66
2022/04/29 10:30:33;;;;;;;1.80;1.70;;;;;;;21.53;37.71;97077.25;5054680;27;105406;-66
2022/04/29 10:33:03;;;;;;;2.67;2.07;;;;;;;21.20;36.17;97067.66;5055464;27;101895;-66
2022/04/29 10:35:49;;;;;;;2.20;2.00;;;;;;;20.54;37.65;97074.56;5055197;27;105565;-66
2022/04/29 10:38:19;;;;;;;2.30;1.90;;;;;;;20.37;37.45;97071.59;5054592;27;105374;-66
2022/04/29 10:40:48;;;;;;;2.10;1.90;;;;;;;20.45;37.90;97071.75;5055090;27;101842;-66
2022/04/29 10:43:18;;;;;;;2.23;2.03;;;;;;;20.75;38.75;97064.97;5055125;27;105533;-66
2022/04/29 10:46:15;;;;;;;2.10;1.93;;;;;;;21.27;39.83;97064.53;5057990;27;106125;-66
2022/04/29 10:48:52;;;;;;;3.23;2.30;;;;;;;21.34;36.82;97062.22;5055067;27;105196;-66
2022/04/29 10:51:49;;;;;;;2.73;2.10;;;;;;;21.73;36.52;97063.31;5073022;27;103045;-66
2022/04/29 10:54:50;;;;;;;2.93;2.07;;;;;;;21.34;38.10;97054.09;5073241;27;101834;-66
2022/04/29 10:57:41;;;;;;;2.30;1.73;;;;;;;21.91;37.06;97056.16;5073329;27;101705;-66
2022/04/29 11:00:11;;;;;;;2.80;1.97;;;;;;;22.24;37.05;97054.81;5072581;27;102452;-66
2022/04/29 11:02:41;;;;;;;2.13;2.03;;;;;;;22.35;34.92;97042.63;5053913;27;102017;-66
2022/04/29 11:05:08;;;;;;;3.00;2.17;;;;;;;21.21;34.81;97039.47;5072635;27;102539;-66
2022/04/29 11:07:44;;;;;;;2.73;2.10;;;;;;;20.93;39.00;97031.69;5053971;27;105116;-66
2022/04/29 11:10:15;;;;;;;2.47;2.10;;;;;;;21.49;38.30;97032.16;5058222;27;102109;-66
2022/04/29 11:13:03;;;;;;;2.60;2.27;;;;;;;21.84;37.70;97028.66;5053791;27;104099;-66
2022/04/29 11:15:48;;;;;;;2.47;2.03;;;;;;;22.22;37.44;97028.03;5069928;27;101648;-66
2022/04/29 11:19:18;;;;;;;2.93;2.10;;;;;;;22.62;35.86;97020.81;5043193;27;102363;-66
2022/04/29 11:24:44;;;;;;;2.13;1.93;;;;;;;22.85;35.59;97008.78;5073023;27;101778;-66
2022/04/29 11:27:25;;;;;;;2.47;2.10;;;;;;;22.96;37.05;97020.94;5054322;27;104862;-66
2022/04/29 11:30:01;;;;;;;1.80;1.70;;;;;;;23.08;35.41;97013.00;5053939;27;105591;-66
2022/04/29 11:32:39;;;;;;;1.83;1.73;;;;;;;22.94;37.04;97006.91;5072777;27;101822;-66
2022/04/29 11:35:06;;;;;;;2.07;1.90;;;;;;;22.96;34.84;97007.38;5057211;27;103543;-66
2022/04/29 11:37:35;;;;;;;2.10;1.83;;;;;;;22.74;36.00;96996.59;5054165;27;101831;-66
2022/04/29 11:40:05;;;;;;;4.37;2.00;;;;;;;22.94;36.04;97001.50;5072997;27;102833;-66
2022/04/29 11:42:34;;;;;;;2.43;2.00;;;;;;;23.03;34.16;97002.28;5037080;27;105513;-66
2022/04/29 11:45:05;;;;;;;2.77;1.83;;;;;;;23.35;35.23;96997.31;5054163;27;102114;-66
2022/04/29 11:47:34;;;;;;;2.10;2.00;;;;;;;23.74;34.69;96990.94;5054209;27;104869;-66
2022/04/29 11:50:02;;;;;;;2.10;1.80;;;;;;;23.21;34.83;96993.13;5053397;27;105313;-66
2022/04/29 11:52:31;;;;;;;2.07;1.90;;;;;;;23.36;34.39;96984.53;5054153;27;101938;-66
2022/04/29 11:55:00;;;;;;;2.30;1.93;;;;;;;23.65;35.58;96982.81;5054209;27;105587;-66
2022/04/29 11:57:29;;;;;;;2.97;1.90;;;;;;;23.84;33.41;96979.78;5073652;27;105526;-66
2022/04/29 11:59:58;;;;;;;1.80;1.70;;;;;;;23.73;34.55;96978.50;5072352;27;102647;-67
2022/04/29 12:02:27;;;;;;;3.03;1.60;;;;;;;23.97;34.66;96971.50;5053021;27;105446;-68
2022/04/29 12:04:56;;;;;;;2.10;1.60;;;;;;;23.83;33.64;96967.31;5053739;27;101988;-68
2022/04/29 12:07:24;;;;;;;2.33;1.97;;;;;;;23.75;32.05;96959.97;5053868;27;105904;-68
2022/04/29 12:09:54;;;;;;;1.93;1.80;;;;;;;23.73;33.68;96960.28;5053193;27;105089;-68
2022/04/29 12:12:26;;;;;;;2.03;1.70;;;;;;;23.44;33.13;96960.09;5053640;27;101877;-68
2022/04/29 12:14:53;;;;;;;2.10;1.50;;;;;;;23.40;34.06;96961.06;5070793;27;104030;-68
2022/04/29 12:17:32;;;;;;;1.70;1.60;;;;;;;22.63;34.49;96951.91;5056451;27;105561;-68